sensor_id;sensor_type;location;lat;lon;timestamp;P1;durP1;ratioP1;P2;durP2;ratioP2
61897;SDS011;47850;50.274;18.908;2022-09-01T00:00:26;6.50;;;4.00;;
61897;SDS011;47850;50.274;18.908;2022-09-01T00:02:54;8.10;;;4.00;;
61897;SDS011;47850;50.274;18.908;2022-09-01T00:05:20;8.40;;;3.70;;
61897;SDS011;47850;50.274;18.908;2022-09-01T00:07:46;6.70;;;3.80;;
61897;SDS011;47850;50.274;18.908;2022-09-01T00:10:14;5.70;;;3.50;;
61897;SDS011;47850;50.274;18.908;2022-09-01T00:12:40;8.50;;;3.80;;
61897;SDS011;47850;50.274;18.908;2022-09-01T00:15:07;8.10;;;3.20;;
61897;SDS011;47850;50.274;18.908;2022-09-01T00:18:09;6.10;;;3.20;;
61897;SDS011;47850;50.274;18.908;2022-09-01T00:24:05;4.90;;;2.80;;
61897;SDS011;47850;50.274;18.908;2022-09-01T00:29:26;5.90;;;2.70;;
61897;SDS011;47850;50.274;18.908;2022-09-01T00:31:52;4.90;;;2.50;;
61897;SDS011;47850;50.274;18.908;2022-09-01T00:37:16;8.50;;;2.50;;
61897;SDS011;47850;50.274;18.908;2022-09-01T00:40:08;5.00;;;2.00;;
61897;SDS011;47850;50.274;18.908;2022-09-01T00:42:38;5.70;;;2.20;;
61897;SDS011;47850;50.274;18.908;2022-09-01T00:45:06;4.20;;;2.10;;
61897;SDS011;47850;50.274;18.908;2022-09-01T00:47:33;5.70;;;2.10;;
61897;SDS011;47850;50.274;18.908;2022-09-01T00:50:00;3.00;;;2.10;;
61897;SDS011;47850;50.274;18.908;2022-09-01T00:52:30;5.10;;;2.50;;
61897;SDS011;47850;50.274;18.908;2022-09-01T00:54:59;4.40;;;2.10;;
61897;SDS011;47850;50.274;18.908;2022-09-01T00:57:29;7.30;;;2.10;;
61897;SDS011;47850;50.274;18.908;2022-09-01T01:03:27;4.00;;;2.20;;
61897;SDS011;47850;50.274;18.908;2022-09-01T01:05:55;3.70;;;2.00;;
61897;SDS011;47850;50.274;18.908;2022-09-01T01:08:24;4.30;;;2.10;;
61897;SDS011;47850;50.274;18.908;2022-09-01T01:11:02;3.20;;;2.10;;
61897;SDS011;47850;50.274;18.908;2022-09-01T01:13:31;6.90;;;2.30;;
61897;SDS011;47850;50.274;18.908;2022-09-01T01:16:06;6.20;;;2.80;;
61897;SDS011;47850;50.274;18.908;2022-09-01T01:18:32;7.00;;;3.40;;
61897;SDS011;47850;50.274;18.908;2022-09-01T01:21:00;7.20;;;3.10;;
61897;SDS011;47850;50.274;18.908;2022-09-01T01:23:54;6.20;;;3.50;;
61897;SDS011;47850;50.274;18.908;2022-09-01T01:26:37;7.10;;;3.80;;
61897;SDS011;47850;50.274;18.908;2022-09-01T01:29:04;7.00;;;4.20;;
61897;SDS011;47850;50.274;18.908;2022-09-01T01:31:34;7.80;;;3.50;;
61897;SDS011;47850;50.274;18.908;2022-09-01T01:34:00;6.10;;;3.90;;
61897;SDS011;47850;50.274;18.908;2022-09-01T01:36:31;4.70;;;3.20;;
61897;SDS011;47850;50.274;18.908;2022-09-01T01:46:35;7.80;;;3.40;;
61897;SDS011;47850;50.274;18.908;2022-09-01T01:49:08;6.20;;;3.00;;
61897;SDS011;47850;50.274;18.908;2022-09-01T01:51:37;5.60;;;2.90;;
61897;SDS011;47850;50.274;18.908;2022-09-01T01:54:04;4.50;;;2.60;;
61897;SDS011;47850;50.274;18.908;2022-09-01T01:56:32;7.80;;;2.80;;
61897;SDS011;47850;50.274;18.908;2022-09-01T01:59:02;5.80;;;2.70;;
61897;SDS011;47850;50.274;18.908;2022-09-01T02:01:28;6.20;;;2.60;;
61897;SDS011;47850;50.274;18.908;2022-09-01T02:03:57;5.90;;;3.20;;
61897;SDS011;47850;50.274;18.908;2022-09-01T02:06:25;7.10;;;3.30;;
61897;SDS011;47850;50.274;18.908;2022-09-01T02:08:53;6.10;;;2.90;;
61897;SDS011;47850;50.274;18.908;2022-09-01T02:11:28;4.90;;;2.80;;
61897;SDS011;47850;50.274;18.908;2022-09-01T02:13:55;5.90;;;3.10;;
61897;SDS011;47850;50.274;18.908;2022-09-01T02:16:22;10.30;;;3.60;;
61897;SDS011;47850;50.274;18.908;2022-09-01T02:18:50;10.00;;;3.20;;
61897;SDS011;47850;50.274;18.908;2022-09-01T02:21:19;7.50;;;2.80;;
61897;SDS011;47850;50.274;18.908;2022-09-01T02:23:54;8.00;;;4.00;;
61897;SDS011;47850;50.274;18.908;2022-09-01T02:26:39;11.00;;;4.90;;
61897;SDS011;47850;50.274;18.908;2022-09-01T02:29:17;9.00;;;5.90;;
61897;SDS011;47850;50.274;18.908;2022-09-01T02:34:48;8.40;;;2.80;;
61897;SDS011;47850;50.274;18.908;2022-09-01T02:40:20;6.00;;;3.20;;
61897;SDS011;47850;50.274;18.908;2022-09-01T02:45:59;9.60;;;5.30;;
61897;SDS011;47850;50.274;18.908;2022-09-01T02:54:51;4.70;;;2.70;;
61897;SDS011;47850;50.274;18.908;2022-09-01T02:57:20;3.80;;;2.50;;
61897;SDS011;47850;50.274;18.908;2022-09-01T02:59:47;6.50;;;3.00;;
61897;SDS011;47850;50.274;18.908;2022-09-01T03:02:13;7.50;;;4.00;;
61897;SDS011;47850;50.274;18.908;2022-09-01T03:04:39;10.90;;;5.50;;
61897;SDS011;47850;50.274;18.908;2022-09-01T03:07:05;7.30;;;3.80;;
61897;SDS011;47850;50.274;18.908;2022-09-01T03:09:31;8.40;;;3.60;;
61897;SDS011;47850;50.274;18.908;2022-09-01T03:11:58;6.70;;;2.60;;
61897;SDS011;47850;50.274;18.908;2022-09-01T03:14:24;4.90;;;2.50;;
61897;SDS011;47850;50.274;18.908;2022-09-01T03:16:50;6.30;;;3.30;;
61897;SDS011;47850;50.274;18.908;2022-09-01T03:19:17;7.40;;;3.50;;
61897;SDS011;47850;50.274;18.908;2022-09-01T03:21:43;8.40;;;3.40;;
61897;SDS011;47850;50.274;18.908;2022-09-01T03:24:11;11.50;;;4.90;;
61897;SDS011;47850;50.274;18.908;2022-09-01T03:26:41;7.80;;;4.70;;
61897;SDS011;47850;50.274;18.908;2022-09-01T03:29:08;14.80;;;6.10;;
61897;SDS011;47850;50.274;18.908;2022-09-01T03:31:35;11.50;;;6.20;;
61897;SDS011;47850;50.274;18.908;2022-09-01T03:34:02;10.20;;;6.30;;
61897;SDS011;47850;50.274;18.908;2022-09-01T03:36:30;10.90;;;6.30;;
61897;SDS011;47850;50.274;18.908;2022-09-01T03:38:58;11.30;;;6.60;;
61897;SDS011;47850;50.274;18.908;2022-09-01T03:41:26;12.60;;;7.20;;
61897;SDS011;47850;50.274;18.908;2022-09-01T03:43:53;8.10;;;6.60;;
61897;SDS011;47850;50.274;18.908;2022-09-01T03:46:25;8.70;;;6.20;;
61897;SDS011;47850;50.274;18.908;2022-09-01T03:48:53;12.60;;;7.30;;
61897;SDS011;47850;50.274;18.908;2022-09-01T03:51:23;10.00;;;7.20;;
61897;SDS011;47850;50.274;18.908;2022-09-01T03:53:51;10.30;;;8.60;;
61897;SDS011;47850;50.274;18.908;2022-09-01T03:58:52;10.50;;;7.50;;
61897;SDS011;47850;50.274;18.908;2022-09-01T04:01:23;11.20;;;8.10;;
61897;SDS011;47850;50.274;18.908;2022-09-01T04:03:50;11.80;;;7.50;;
61897;SDS011;47850;50.274;18.908;2022-09-01T04:06:17;16.40;;;8.70;;
61897;SDS011;47850;50.274;18.908;2022-09-01T04:08:45;20.60;;;9.40;;
61897;SDS011;47850;50.274;18.908;2022-09-01T04:11:13;22.90;;;10.30;;
61897;SDS011;47850;50.274;18.908;2022-09-01T04:13:43;18.60;;;8.80;;
61897;SDS011;47850;50.274;18.908;2022-09-01T04:19:17;20.10;;;10.70;;
61897;SDS011;47850;50.274;18.908;2022-09-01T04:21:54;10.60;;;4.80;;
61897;SDS011;47850;50.274;18.908;2022-09-01T04:24:24;9.30;;;3.60;;
61897;SDS011;47850;50.274;18.908;2022-09-01T04:27:04;7.20;;;3.40;;
61897;SDS011;47850;50.274;18.908;2022-09-01T04:30:02;7.00;;;2.80;;
61897;SDS011;47850;50.274;18.908;2022-09-01T04:32:28;6.80;;;2.60;;
61897;SDS011;47850;50.274;18.908;2022-09-01T04:34:55;5.10;;;2.60;;
61897;SDS011;47850;50.274;18.908;2022-09-01T04:37:21;6.90;;;2.30;;
61897;SDS011;47850;50.274;18.908;2022-09-01T04:39:49;4.10;;;2.30;;
61897;SDS011;47850;50.274;18.908;2022-09-01T04:42:19;5.90;;;2.40;;
61897;SDS011;47850;50.274;18.908;2022-09-01T04:44:51;3.00;;;1.80;;
61897;SDS011;47850;50.274;18.908;2022-09-01T04:51:24;4.70;;;2.30;;
61897;SDS011;47850;50.274;18.908;2022-09-01T04:53:53;3.90;;;2.10;;
61897;SDS011;47850;50.274;18.908;2022-09-01T04:56:22;9.50;;;2.60;;
61897;SDS011;47850;50.274;18.908;2022-09-01T04:58:50;4.50;;;2.50;;
61897;SDS011;47850;50.274;18.908;2022-09-01T05:01:21;8.30;;;2.40;;
61897;SDS011;47850;50.274;18.908;2022-09-01T05:06:59;4.70;;;2.20;;
61897;SDS011;47850;50.274;18.908;2022-09-01T05:16:59;10.30;;;3.10;;
61897;SDS011;47850;50.274;18.908;2022-09-01T05:19:38;5.50;;;2.70;;
61897;SDS011;47850;50.274;18.908;2022-09-01T05:22:08;4.50;;;2.00;;
61897;SDS011;47850;50.274;18.908;2022-09-01T05:24:35;5.40;;;2.60;;
61897;SDS011;47850;50.274;18.908;2022-09-01T05:27:05;5.20;;;2.80;;
61897;SDS011;47850;50.274;18.908;2022-09-01T05:29:32;8.70;;;3.40;;
61897;SDS011;47850;50.274;18.908;2022-09-01T05:32:02;5.80;;;2.60;;
61897;SDS011;47850;50.274;18.908;2022-09-01T05:34:34;5.10;;;2.50;;
61897;SDS011;47850;50.274;18.908;2022-09-01T05:37:03;5.50;;;2.70;;
61897;SDS011;47850;50.274;18.908;2022-09-01T05:39:31;4.00;;;2.10;;
61897;SDS011;47850;50.274;18.908;2022-09-01T05:41:57;4.70;;;2.20;;
61897;SDS011;47850;50.274;18.908;2022-09-01T05:44:24;9.00;;;3.20;;
61897;SDS011;47850;50.274;18.908;2022-09-01T05:46:50;4.20;;;2.40;;
61897;SDS011;47850;50.274;18.908;2022-09-01T05:49:17;4.20;;;2.00;;
61897;SDS011;47850;50.274;18.908;2022-09-01T05:51:45;5.80;;;2.30;;
61897;SDS011;47850;50.274;18.908;2022-09-01T05:54:16;9.80;;;3.00;;
61897;SDS011;47850;50.274;18.908;2022-09-01T05:56:46;5.00;;;2.30;;
61897;SDS011;47850;50.274;18.908;2022-09-01T05:59:13;8.40;;;2.50;;
61897;SDS011;47850;50.274;18.908;2022-09-01T06:01:40;11.40;;;3.50;;
61897;SDS011;47850;50.274;18.908;2022-09-01T06:04:07;9.70;;;2.30;;
61897;SDS011;47850;50.274;18.908;2022-09-01T06:06:41;7.10;;;2.40;;
61897;SDS011;47850;50.274;18.908;2022-09-01T06:09:11;8.20;;;2.40;;
61897;SDS011;47850;50.274;18.908;2022-09-01T06:11:39;7.60;;;2.60;;
61897;SDS011;47850;50.274;18.908;2022-09-01T06:14:06;12.60;;;3.00;;
61897;SDS011;47850;50.274;18.908;2022-09-01T06:16:35;7.60;;;3.00;;
61897;SDS011;47850;50.274;18.908;2022-09-01T06:19:02;5.70;;;3.10;;
61897;SDS011;47850;50.274;18.908;2022-09-01T06:21:29;8.60;;;3.70;;
61897;SDS011;47850;50.274;18.908;2022-09-01T06:23:56;7.40;;;3.70;;
61897;SDS011;47850;50.274;18.908;2022-09-01T06:26:27;13.10;;;4.20;;
61897;SDS011;47850;50.274;18.908;2022-09-01T06:28:56;8.80;;;3.90;;
61897;SDS011;47850;50.274;18.908;2022-09-01T06:31:28;13.30;;;4.50;;
61897;SDS011;47850;50.274;18.908;2022-09-01T06:34:00;13.50;;;4.70;;
61897;SDS011;47850;50.274;18.908;2022-09-01T06:36:28;14.90;;;5.50;;
61897;SDS011;47850;50.274;18.908;2022-09-01T06:38:57;13.50;;;4.90;;
61897;SDS011;47850;50.274;18.908;2022-09-01T06:41:26;18.90;;;5.80;;
61897;SDS011;47850;50.274;18.908;2022-09-01T06:43:53;14.40;;;5.30;;
61897;SDS011;47850;50.274;18.908;2022-09-01T06:46:20;14.80;;;5.00;;
61897;SDS011;47850;50.274;18.908;2022-09-01T06:48:48;17.30;;;4.60;;
61897;SDS011;47850;50.274;18.908;2022-09-01T06:51:16;13.70;;;4.70;;
61897;SDS011;47850;50.274;18.908;2022-09-01T06:53:45;13.00;;;4.60;;
61897;SDS011;47850;50.274;18.908;2022-09-01T06:56:25;16.50;;;4.40;;
61897;SDS011;47850;50.274;18.908;2022-09-01T06:58:54;10.30;;;3.30;;
61897;SDS011;47850;50.274;18.908;2022-09-01T07:01:20;10.20;;;3.30;;
61897;SDS011;47850;50.274;18.908;2022-09-01T07:03:48;9.30;;;3.10;;
61897;SDS011;47850;50.274;18.908;2022-09-01T07:06:16;16.10;;;3.90;;
61897;SDS011;47850;50.274;18.908;2022-09-01T07:08:44;6.50;;;2.40;;
61897;SDS011;47850;50.274;18.908;2022-09-01T07:11:18;8.70;;;2.10;;
61897;SDS011;47850;50.274;18.908;2022-09-01T07:13:49;5.40;;;1.90;;
61897;SDS011;47850;50.274;18.908;2022-09-01T07:16:19;7.00;;;2.10;;
61897;SDS011;47850;50.274;18.908;2022-09-01T07:18:47;5.90;;;2.50;;
61897;SDS011;47850;50.274;18.908;2022-09-01T07:21:14;17.60;;;4.20;;
61897;SDS011;47850;50.274;18.908;2022-09-01T07:23:40;15.90;;;3.70;;
61897;SDS011;47850;50.274;18.908;2022-09-01T07:26:08;37.50;;;7.90;;
61897;SDS011;47850;50.274;18.908;2022-09-01T07:28:35;18.20;;;3.30;;
61897;SDS011;47850;50.274;18.908;2022-09-01T07:31:01;6.30;;;2.20;;
61897;SDS011;47850;50.274;18.908;2022-09-01T07:33:30;12.30;;;2.00;;
61897;SDS011;47850;50.274;18.908;2022-09-01T07:35:57;5.60;;;1.90;;
61897;SDS011;47850;50.274;18.908;2022-09-01T07:38:23;144.10;;;19.80;;
61897;SDS011;47850;50.274;18.908;2022-09-01T07:40:50;53.70;;;9.30;;
61897;SDS011;47850;50.274;18.908;2022-09-01T07:43:21;7.30;;;2.30;;
61897;SDS011;47850;50.274;18.908;2022-09-01T07:45:51;6.20;;;2.40;;
61897;SDS011;47850;50.274;18.908;2022-09-01T07:48:24;69.90;;;10.20;;
61897;SDS011;47850;50.274;18.908;2022-09-01T07:50:53;21.70;;;6.70;;
61897;SDS011;47850;50.274;18.908;2022-09-01T07:53:24;6.50;;;2.40;;
61897;SDS011;47850;50.274;18.908;2022-09-01T07:55:54;9.00;;;2.30;;
61897;SDS011;47850;50.274;18.908;2022-09-01T07:58:22;4.10;;;2.10;;
61897;SDS011;47850;50.274;18.908;2022-09-01T08:00:50;5.90;;;1.90;;
61897;SDS011;47850;50.274;18.908;2022-09-01T08:03:18;9.20;;;1.80;;
61897;SDS011;47850;50.274;18.908;2022-09-01T08:05:46;2.90;;;1.70;;
61897;SDS011;47850;50.274;18.908;2022-09-01T08:08:15;7.40;;;1.60;;
61897;SDS011;47850;50.274;18.908;2022-09-01T08:10:41;4.90;;;1.30;;
61897;SDS011;47850;50.274;18.908;2022-09-01T08:13:09;4.10;;;1.20;;
61897;SDS011;47850;50.274;18.908;2022-09-01T08:15:36;2.90;;;0.90;;
61897;SDS011;47850;50.274;18.908;2022-09-01T08:18:04;2.60;;;1.00;;
61897;SDS011;47850;50.274;18.908;2022-09-01T08:20:31;1.80;;;0.90;;
61897;SDS011;47850;50.274;18.908;2022-09-01T08:23:02;5.70;;;1.00;;
61897;SDS011;47850;50.274;18.908;2022-09-01T08:25:29;5.80;;;0.90;;
61897;SDS011;47850;50.274;18.908;2022-09-01T08:27:57;3.50;;;0.90;;
61897;SDS011;47850;50.274;18.908;2022-09-01T08:30:23;1.90;;;0.90;;
61897;SDS011;47850;50.274;18.908;2022-09-01T08:32:49;2.10;;;1.10;;
61897;SDS011;47850;50.274;18.908;2022-09-01T08:35:15;2.30;;;1.00;;
61897;SDS011;47850;50.274;18.908;2022-09-01T08:37:41;4.20;;;1.00;;
61897;SDS011;47850;50.274;18.908;2022-09-01T08:40:12;4.00;;;1.40;;
61897;SDS011;47850;50.274;18.908;2022-09-01T08:42:46;6.60;;;1.20;;
61897;SDS011;47850;50.274;18.908;2022-09-01T08:45:32;1.80;;;0.90;;
61897;SDS011;47850;50.274;18.908;2022-09-01T08:48:18;2.70;;;1.10;;
61897;SDS011;47850;50.274;18.908;2022-09-01T08:50:54;2.30;;;1.00;;
61897;SDS011;47850;50.274;18.908;2022-09-01T08:53:41;3.00;;;1.00;;
61897;SDS011;47850;50.274;18.908;2022-09-01T08:56:11;6.80;;;0.90;;
61897;SDS011;47850;50.274;18.908;2022-09-01T08:58:39;5.40;;;2.50;;
61897;SDS011;47850;50.274;18.908;2022-09-01T09:01:10;2.20;;;1.00;;
61897;SDS011;47850;50.274;18.908;2022-09-01T09:09:41;3.30;;;0.90;;
61897;SDS011;47850;50.274;18.908;2022-09-01T09:15:02;5.00;;;1.10;;
61897;SDS011;47850;50.274;18.908;2022-09-01T09:17:38;1.50;;;0.80;;
61897;SDS011;47850;50.274;18.908;2022-09-01T09:20:10;1.60;;;0.90;;
61897;SDS011;47850;50.274;18.908;2022-09-01T09:22:36;21.60;;;1.80;;
61897;SDS011;47850;50.274;18.908;2022-09-01T09:25:13;1.90;;;0.90;;
61897;SDS011;47850;50.274;18.908;2022-09-01T09:27:42;1.40;;;0.80;;
61897;SDS011;47850;50.274;18.908;2022-09-01T09:30:12;4.00;;;0.80;;
61897;SDS011;47850;50.274;18.908;2022-09-01T09:32:51;4.20;;;1.00;;
61897;SDS011;47850;50.274;18.908;2022-09-01T09:35:27;1.40;;;0.70;;
61897;SDS011;47850;50.274;18.908;2022-09-01T09:37:56;2.70;;;0.70;;
61897;SDS011;47850;50.274;18.908;2022-09-01T09:40:57;3.90;;;0.80;;
61897;SDS011;47850;50.274;18.908;2022-09-01T09:46:36;5.00;;;0.90;;
61897;SDS011;47850;50.274;18.908;2022-09-01T09:49:06;4.00;;;0.90;;
61897;SDS011;47850;50.274;18.908;2022-09-01T09:51:44;1.10;;;0.70;;
61897;SDS011;47850;50.274;18.908;2022-09-01T09:54:23;3.90;;;1.00;;
61897;SDS011;47850;50.274;18.908;2022-09-01T10:02:19;3.30;;;1.00;;
61897;SDS011;47850;50.274;18.908;2022-09-01T10:04:59;2.40;;;0.80;;
61897;SDS011;47850;50.274;18.908;2022-09-01T10:07:28;6.40;;;1.00;;
61897;SDS011;47850;50.274;18.908;2022-09-01T10:10:00;6.60;;;1.30;;
61897;SDS011;47850;50.274;18.908;2022-09-01T10:12:32;4.80;;;0.90;;
61897;SDS011;47850;50.274;18.908;2022-09-01T10:15:03;7.60;;;1.00;;
61897;SDS011;47850;50.274;18.908;2022-09-01T10:20:04;6.40;;;0.70;;
61897;SDS011;47850;50.274;18.908;2022-09-01T10:22:34;6.90;;;0.80;;
61897;SDS011;47850;50.274;18.908;2022-09-01T10:25:03;3.70;;;0.90;;
61897;SDS011;47850;50.274;18.908;2022-09-01T10:27:32;5.70;;;3.30;;
61897;SDS011;47850;50.274;18.908;2022-09-01T10:30:13;7.90;;;2.80;;
61897;SDS011;47850;50.274;18.908;2022-09-01T10:32:45;4.90;;;1.40;;
61897;SDS011;47850;50.274;18.908;2022-09-01T10:35:33;2.90;;;0.80;;
61897;SDS011;47850;50.274;18.908;2022-09-01T10:38:05;4.70;;;1.10;;
61897;SDS011;47850;50.274;18.908;2022-09-01T10:40:41;1.30;;;0.50;;
61897;SDS011;47850;50.274;18.908;2022-09-01T10:43:24;6.40;;;0.90;;
61897;SDS011;47850;50.274;18.908;2022-09-01T10:48:45;2.50;;;0.70;;
61897;SDS011;47850;50.274;18.908;2022-09-01T10:56:16;2.20;;;0.60;;
61897;SDS011;47850;50.274;18.908;2022-09-01T11:04:05;1.50;;;0.60;;
61897;SDS011;47850;50.274;18.908;2022-09-01T11:09:21;1.30;;;0.70;;
61897;SDS011;47850;50.274;18.908;2022-09-01T11:17:19;6.30;;;0.60;;
61897;SDS011;47850;50.274;18.908;2022-09-01T11:19:58;2.00;;;0.50;;
61897;SDS011;47850;50.274;18.908;2022-09-01T11:22:36;7.50;;;1.80;;
61897;SDS011;47850;50.274;18.908;2022-09-01T11:25:41;4.50;;;0.90;;
61897;SDS011;47850;50.274;18.908;2022-09-01T11:28:04;4.60;;;0.80;;
61897;SDS011;47850;50.274;18.908;2022-09-01T11:38:50;4.30;;;0.80;;
61897;SDS011;47850;50.274;18.908;2022-09-01T11:41:22;1.40;;;0.70;;
61897;SDS011;47850;50.274;18.908;2022-09-01T11:43:54;2.80;;;0.60;;
61897;SDS011;47850;50.274;18.908;2022-09-01T11:46:32;5.50;;;0.90;;
61897;SDS011;47850;50.274;18.908;2022-09-01T11:49:02;2.60;;;0.80;;
61897;SDS011;47850;50.274;18.908;2022-09-01T11:51:38;1.20;;;0.70;;
61897;SDS011;47850;50.274;18.908;2022-09-01T11:54:10;2.70;;;0.80;;
61897;SDS011;47850;50.274;18.908;2022-09-01T11:56:37;1.70;;;0.70;;
61897;SDS011;47850;50.274;18.908;2022-09-01T11:59:03;1.80;;;0.80;;
61897;SDS011;47850;50.274;18.908;2022-09-01T12:03:54;4.30;;;0.70;;
61897;SDS011;47850;50.274;18.908;2022-09-01T12:06:22;2.00;;;0.60;;
61897;SDS011;47850;50.274;18.908;2022-09-01T12:08:58;1.00;;;0.50;;
61897;SDS011;47850;50.274;18.908;2022-09-01T12:11:30;3.10;;;0.60;;
61897;SDS011;47850;50.274;18.908;2022-09-01T12:14:02;3.60;;;0.60;;
61897;SDS011;47850;50.274;18.908;2022-09-01T12:16:37;3.30;;;0.70;;
61897;SDS011;47850;50.274;18.908;2022-09-01T12:19:06;4.20;;;0.60;;
61897;SDS011;47850;50.274;18.908;2022-09-01T12:21:37;4.40;;;0.70;;
61897;SDS011;47850;50.274;18.908;2022-09-01T12:24:20;3.00;;;0.70;;
61897;SDS011;47850;50.274;18.908;2022-09-01T12:26:52;3.20;;;0.60;;
61897;SDS011;47850;50.274;18.908;2022-09-01T12:29:21;3.00;;;0.60;;
61897;SDS011;47850;50.274;18.908;2022-09-01T12:31:48;4.40;;;0.80;;
61897;SDS011;47850;50.274;18.908;2022-09-01T12:34:25;2.70;;;0.50;;
61897;SDS011;47850;50.274;18.908;2022-09-01T12:37:04;7.60;;;0.80;;
61897;SDS011;47850;50.274;18.908;2022-09-01T12:39:33;2.30;;;0.60;;
61897;SDS011;47850;50.274;18.908;2022-09-01T12:47:13;3.20;;;0.60;;
61897;SDS011;47850;50.274;18.908;2022-09-01T12:49:58;5.80;;;2.10;;
61897;SDS011;47850;50.274;18.908;2022-09-01T12:52:25;5.10;;;0.80;;
61897;SDS011;47850;50.274;18.908;2022-09-01T12:57:25;6.10;;;0.70;;
61897;SDS011;47850;50.274;18.908;2022-09-01T13:00:07;4.30;;;0.70;;
61897;SDS011;47850;50.274;18.908;2022-09-01T13:07:58;3.70;;;0.80;;
61897;SDS011;47850;50.274;18.908;2022-09-01T13:10:26;6.60;;;0.80;;
61897;SDS011;47850;50.274;18.908;2022-09-01T13:12:57;2.00;;;0.60;;
61897;SDS011;47850;50.274;18.908;2022-09-01T13:15:25;2.60;;;0.70;;
61897;SDS011;47850;50.274;18.908;2022-09-01T13:17:52;6.40;;;0.80;;
61897;SDS011;47850;50.274;18.908;2022-09-01T13:20:18;3.60;;;0.60;;
61897;SDS011;47850;50.274;18.908;2022-09-01T13:22:44;7.40;;;0.70;;
61897;SDS011;47850;50.274;18.908;2022-09-01T13:25:11;4.20;;;0.70;;
61897;SDS011;47850;50.274;18.908;2022-09-01T13:27:39;7.50;;;1.80;;
61897;SDS011;47850;50.274;18.908;2022-09-01T13:30:15;14.40;;;1.00;;
61897;SDS011;47850;50.274;18.908;2022-09-01T13:32:44;2.10;;;0.70;;
61897;SDS011;47850;50.274;18.908;2022-09-01T13:35:12;6.20;;;0.70;;
61897;SDS011;47850;50.274;18.908;2022-09-01T13:37:40;3.70;;;0.90;;
61897;SDS011;47850;50.274;18.908;2022-09-01T13:40:06;1.30;;;0.70;;
61897;SDS011;47850;50.274;18.908;2022-09-01T13:42:40;5.80;;;0.80;;
61897;SDS011;47850;50.274;18.908;2022-09-01T13:45:14;5.20;;;0.70;;
61897;SDS011;47850;50.274;18.908;2022-09-01T13:47:44;4.30;;;0.90;;
61897;SDS011;47850;50.274;18.908;2022-09-01T13:50:12;5.80;;;2.80;;
61897;SDS011;47850;50.274;18.908;2022-09-01T13:52:41;4.40;;;0.80;;
61897;SDS011;47850;50.274;18.908;2022-09-01T13:55:09;1.80;;;0.70;;
61897;SDS011;47850;50.274;18.908;2022-09-01T13:57:37;6.50;;;1.00;;
61897;SDS011;47850;50.274;18.908;2022-09-01T14:00:03;5.40;;;0.80;;
61897;SDS011;47850;50.274;18.908;2022-09-01T14:02:32;8.50;;;0.80;;
61897;SDS011;47850;50.274;18.908;2022-09-01T14:04:59;4.20;;;1.00;;
61897;SDS011;47850;50.274;18.908;2022-09-01T14:07:25;3.70;;;2.40;;
61897;SDS011;47850;50.274;18.908;2022-09-01T14:09:51;4.40;;;0.70;;
61897;SDS011;47850;50.274;18.908;2022-09-01T14:12:17;5.20;;;1.60;;
61897;SDS011;47850;50.274;18.908;2022-09-01T14:14:43;4.30;;;0.70;;
61897;SDS011;47850;50.274;18.908;2022-09-01T14:17:09;5.60;;;0.70;;
61897;SDS011;47850;50.274;18.908;2022-09-01T14:19:35;1.80;;;1.00;;
61897;SDS011;47850;50.274;18.908;2022-09-01T14:22:01;1.40;;;0.80;;
61897;SDS011;47850;50.274;18.908;2022-09-01T14:24:32;3.30;;;0.70;;
61897;SDS011;47850;50.274;18.908;2022-09-01T14:27:01;4.70;;;1.40;;
61897;SDS011;47850;50.274;18.908;2022-09-01T14:29:27;5.30;;;0.90;;
61897;SDS011;47850;50.274;18.908;2022-09-01T14:31:54;2.30;;;0.60;;
61897;SDS011;47850;50.274;18.908;2022-09-01T14:34:22;2.70;;;0.60;;
61897;SDS011;47850;50.274;18.908;2022-09-01T14:36:49;2.90;;;0.70;;
61897;SDS011;47850;50.274;18.908;2022-09-01T14:39:19;2.70;;;0.70;;
61897;SDS011;47850;50.274;18.908;2022-09-01T14:41:45;2.70;;;0.70;;
61897;SDS011;47850;50.274;18.908;2022-09-01T14:44:11;2.60;;;0.70;;
61897;SDS011;47850;50.274;18.908;2022-09-01T14:46:36;6.50;;;0.90;;
61897;SDS011;47850;50.274;18.908;2022-09-01T14:49:04;5.90;;;0.80;;
61897;SDS011;47850;50.274;18.908;2022-09-01T14:51:30;44.20;;;2.30;;
61897;SDS011;47850;50.274;18.908;2022-09-01T14:53:57;5.60;;;0.80;;
61897;SDS011;47850;50.274;18.908;2022-09-01T14:56:23;1.00;;;0.70;;
61897;SDS011;47850;50.274;18.908;2022-09-01T14:58:50;6.70;;;0.70;;
61897;SDS011;47850;50.274;18.908;2022-09-01T15:01:23;2.20;;;0.50;;
61897;SDS011;47850;50.274;18.908;2022-09-01T15:03:50;2.30;;;0.50;;
61897;SDS011;47850;50.274;18.908;2022-09-01T15:06:17;2.80;;;0.70;;
61897;SDS011;47850;50.274;18.908;2022-09-01T15:08:45;2.10;;;0.80;;
61897;SDS011;47850;50.274;18.908;2022-09-01T15:11:14;3.50;;;0.70;;
61897;SDS011;47850;50.274;18.908;2022-09-01T15:13:42;5.80;;;2.00;;
61897;SDS011;47850;50.274;18.908;2022-09-01T15:16:17;5.40;;;0.70;;
61897;SDS011;47850;50.274;18.908;2022-09-01T15:18:45;2.00;;;0.60;;
61897;SDS011;47850;50.274;18.908;2022-09-01T15:21:19;2.90;;;1.30;;
61897;SDS011;47850;50.274;18.908;2022-09-01T15:23:48;4.30;;;0.70;;
61897;SDS011;47850;50.274;18.908;2022-09-01T15:26:15;4.10;;;1.80;;
61897;SDS011;47850;50.274;18.908;2022-09-01T15:28:43;6.20;;;0.80;;
61897;SDS011;47850;50.274;18.908;2022-09-01T15:31:09;4.40;;;0.90;;
61897;SDS011;47850;50.274;18.908;2022-09-01T15:33:37;7.40;;;3.10;;
61897;SDS011;47850;50.274;18.908;2022-09-01T15:36:04;9.90;;;0.80;;
61897;SDS011;47850;50.274;18.908;2022-09-01T15:38:30;3.40;;;0.80;;
61897;SDS011;47850;50.274;18.908;2022-09-01T15:40:56;3.00;;;0.70;;
61897;SDS011;47850;50.274;18.908;2022-09-01T15:43:23;3.80;;;1.10;;
61897;SDS011;47850;50.274;18.908;2022-09-01T15:45:49;3.40;;;0.80;;
61897;SDS011;47850;50.274;18.908;2022-09-01T15:48:14;4.40;;;0.90;;
61897;SDS011;47850;50.274;18.908;2022-09-01T15:50:40;4.90;;;1.00;;
61897;SDS011;47850;50.274;18.908;2022-09-01T15:53:07;5.70;;;0.70;;
61897;SDS011;47850;50.274;18.908;2022-09-01T15:55:37;7.10;;;0.60;;
61897;SDS011;47850;50.274;18.908;2022-09-01T15:58:06;11.10;;;0.70;;
61897;SDS011;47850;50.274;18.908;2022-09-01T16:00:32;2.30;;;0.60;;
61897;SDS011;47850;50.274;18.908;2022-09-01T16:02:59;7.80;;;1.00;;
61897;SDS011;47850;50.274;18.908;2022-09-01T16:05:31;6.90;;;0.60;;
61897;SDS011;47850;50.274;18.908;2022-09-01T16:07:59;2.50;;;0.70;;
61897;SDS011;47850;50.274;18.908;2022-09-01T16:10:26;4.70;;;0.90;;
61897;SDS011;47850;50.274;18.908;2022-09-01T16:12:54;11.10;;;1.70;;
61897;SDS011;47850;50.274;18.908;2022-09-01T16:15:22;34.20;;;2.20;;
61897;SDS011;47850;50.274;18.908;2022-09-01T16:20:47;9.00;;;2.90;;
61897;SDS011;47850;50.274;18.908;2022-09-01T16:23:18;8.10;;;3.00;;
61897;SDS011;47850;50.274;18.908;2022-09-01T16:25:46;29.30;;;2.40;;
61897;SDS011;47850;50.274;18.908;2022-09-01T16:28:47;15.60;;;4.20;;
61897;SDS011;47850;50.274;18.908;2022-09-01T16:31:12;6.80;;;1.60;;
61897;SDS011;47850;50.274;18.908;2022-09-01T16:33:51;11.20;;;5.70;;
61897;SDS011;47850;50.274;18.908;2022-09-01T16:36:29;12.80;;;1.90;;
61897;SDS011;47850;50.274;18.908;2022-09-01T16:41:37;13.20;;;1.30;;
61897;SDS011;47850;50.274;18.908;2022-09-01T16:44:18;8.70;;;1.10;;
61897;SDS011;47850;50.274;18.908;2022-09-01T16:49:38;7.30;;;1.40;;
61897;SDS011;47850;50.274;18.908;2022-09-01T16:52:14;2.60;;;1.20;;
61897;SDS011;47850;50.274;18.908;2022-09-01T17:00:11;5.60;;;1.20;;
61897;SDS011;47850;50.274;18.908;2022-09-01T17:07:48;5.50;;;0.90;;